Montezuma, Iowa
Current Conditions -  °F | °C
As of 3:55 AM on Sunday 23 Nov 2014 (Local Time) from KGGI Reporting Station
Overcast Overcast  
Wind Chill: 51°   Ceiling: 2300
Heat Index: 51°   Visibility: 10mi
Dew Point: 49°   Wind: 14mph
Humidity: 94%   Direction: 170°S
Pressure: 29.6"   Gusts: NA
Location:  41.59°N, 92.53°W
Report Text: KGGI 230955Z AUTO 17012KT 10SM SCT013 OVC023 11/10 A2960 RMK AO2 T01050096
Loading
Personal Weather Stations






























Interactive Weather Map New forecast layout! Learn more

10-Day Weather Forecast

Advertisements
Track Severe Weather on mobile